Middlesex, North Carolina
Current Conditions -  °F | °C
As of 3:53 PM on Thursday 20 Nov 2014 (Local Time) from KRWI Reporting Station
Clear Clear  
Wind Chill: 57°   Ceiling: Unl
Heat Index: 57°   Visibility: 10mi
Dew Point: 27°   Wind: 13mph
Humidity: 32%   Direction: 230°SW
Pressure: 30.02"   Gusts: 21mph
Location:  35.79°N, 78.2°W
Report Text: KRWI 202053Z AUTO 23011G18KT 10SM CLR 14/M03 A3002 RMK AO2 SLP164 T01391028 55018
Loading
Personal Weather Stations






























Interactive Weather Map New forecast layout! Learn more

10-Day Weather Forecast

Advertisements
Track Severe Weather on mobile